Montezuma, Georgia
Current Conditions -  °F | °C
As of 10:55 AM on Thursday 27 Nov 2014 (Local Time) from KACJ Reporting Station
Clear Clear  
Wind Chill: 43°   Ceiling: Unl
Heat Index: 48°   Visibility: 10mi
Dew Point: 32°   Wind: 12mph
Humidity: 54%   Direction: 310°NW
Pressure: 30.33"   Gusts: 21mph
Location:  32.31°N, 84.03°W
Report Text: KACJ 271555Z AUTO 31010G18KT 10SM CLR 09/00 A3033 RMK AO2
Loading
Personal Weather Stations






























Interactive Weather Map New forecast layout! Learn more

10-Day Weather Forecast

Advertisements
Track Severe Weather on mobile